createdAt,value
2023-03-10T00:00:23.944Z,99.99
2023-03-10T00:01:24.129Z,99.99
2023-03-10T00:02:23.938Z,99.99
2023-03-10T00:03:24.145Z,99.99
2023-03-10T00:04:23.958Z,99.99
2023-03-10T00:05:23.893Z,99.99
2023-03-10T00:06:23.901Z,99.99
2023-03-10T00:07:23.879Z,99.99
2023-03-10T00:08:26.147Z,99.99
2023-03-10T00:09:23.857Z,99.99
2023-03-10T00:10:23.860Z,99.99
2023-03-10T00:11:23.847Z,99.99
2023-03-10T00:12:23.862Z,99.99
2023-03-10T00:13:23.833Z,99.99
2023-03-10T00:14:23.812Z,99.99
2023-03-10T00:15:23.868Z,99.99
2023-03-10T00:16:23.832Z,99.99
2023-03-10T00:17:23.815Z,99.99
2023-03-10T00:18:23.970Z,99.99
2023-03-10T00:19:23.781Z,99.99
2023-03-10T00:20:23.776Z,99.99
2023-03-10T00:21:23.790Z,99.99
2023-03-10T00:22:23.782Z,99.99
2023-03-10T00:23:23.760Z,99.99
2023-03-10T00:24:23.750Z,99.99
2023-03-10T00:25:23.752Z,99.99
2023-03-10T00:26:23.797Z,99.99
2023-03-10T00:27:23.750Z,99.99
2023-03-10T00:28:23.733Z,99.99
2023-03-10T00:29:23.720Z,99.99
2023-03-10T00:30:23.712Z,99.99
2023-03-10T00:31:23.776Z,99.99
2023-03-10T00:32:23.723Z,99.99
2023-03-10T00:33:23.732Z,99.99
2023-03-10T00:34:23.684Z,99.99
2023-03-10T00:35:23.689Z,99.99
2023-03-10T00:36:23.687Z,99.99
2023-03-10T00:37:24.204Z,99.99
2023-03-10T00:38:23.662Z,99.99
2023-03-10T00:39:23.654Z,99.99
2023-03-10T00:40:24.242Z,99.99
2023-03-10T00:41:23.663Z,99.99
2023-03-10T00:42:23.654Z,99.99
2023-03-10T00:43:23.683Z,99.99
2023-03-10T00:44:23.639Z,99.99
2023-03-10T00:45:23.614Z,99.99
2023-03-10T00:46:23.797Z,99.99
2023-03-10T00:47:23.782Z,99.99
2023-03-10T00:48:23.838Z,99.99
2023-03-10T00:49:23.853Z,99.99
2023-03-10T00:50:23.994Z,99.99
2023-03-10T00:51:24.001Z,99.99
2023-03-10T00:52:24.032Z,99.99
2023-03-10T00:53:24.001Z,99.99
2023-03-10T00:54:23.612Z,99.99
2023-03-10T00:55:23.541Z,99.99
2023-03-10T00:56:23.613Z,99.99
2023-03-10T00:57:23.672Z,99.99
2023-03-10T00:58:23.841Z,99.99
2023-03-10T00:59:23.569Z,99.99
2023-03-10T01:00:23.510Z,99.99
2023-03-10T01:01:23.560Z,99.99
2023-03-10T01:02:23.511Z,99.99
2023-03-10T01:03:23.514Z,99.99
2023-03-10T01:04:23.699Z,99.99
2023-03-10T01:05:23.669Z,99.99
2023-03-10T01:06:23.701Z,99.99
2023-03-10T01:07:23.467Z,99.99
2023-03-10T01:08:23.488Z,99.99
2023-03-10T01:09:23.465Z,99.99
2023-03-10T01:10:23.467Z,99.99
2023-03-10T01:11:23.517Z,99.99
2023-03-10T01:12:23.445Z,99.99
2023-03-10T01:13:23.453Z,99.99
2023-03-10T01:14:23.421Z,99.99
2023-03-10T01:15:23.418Z,99.99
2023-03-10T01:16:23.465Z,99.99
2023-03-10T01:17:23.418Z,99.99
2023-03-10T01:18:23.523Z,99.99
2023-03-10T01:19:23.386Z,99.99
2023-03-10T01:20:24.186Z,99.99
2023-03-10T01:21:24.187Z,99.99
2023-03-10T01:22:23.368Z,99.99
2023-03-10T01:23:24.205Z,99.99
2023-03-10T01:24:23.356Z,99.99
2023-03-10T01:25:23.346Z,99.99
2023-03-10T01:26:23.346Z,99.99
2023-03-10T01:27:24.228Z,99.99
2023-03-10T01:28:23.363Z,99.99
2023-03-10T01:29:24.277Z,99.99
2023-03-10T01:30:23.322Z,99.99
2023-03-10T01:31:23.349Z,99.99
2023-03-10T01:32:23.324Z,99.99
2023-03-10T01:33:23.303Z,99.99
2023-03-10T01:34:23.301Z,99.99
2023-03-10T01:35:23.272Z,99.99
2023-03-10T01:36:23.514Z,99.99
2023-03-10T01:37:23.689Z,99.99
2023-03-10T01:38:23.276Z,99.99
2023-03-10T01:39:23.755Z,99.99
2023-03-10T01:40:23.245Z,99.99
2023-03-10T01:41:23.238Z,99.99
2023-03-10T01:42:23.231Z,99.99
2023-03-10T01:43:23.232Z,99.99
2023-03-10T01:44:23.228Z,99.99
2023-03-10T01:45:23.199Z,99.99
2023-03-10T01:46:23.224Z,99.99
2023-03-10T01:47:23.189Z,99.99
2023-03-10T01:48:23.216Z,99.99
2023-03-10T01:49:23.175Z,99.99
2023-03-10T01:50:23.215Z,99.99
2023-03-10T01:51:23.325Z,99.99
2023-03-10T01:52:23.183Z,99.99
2023-03-10T01:53:23.186Z,99.99
2023-03-10T01:54:23.160Z,99.99
2023-03-10T01:55:23.165Z,99.99
2023-03-10T01:56:23.134Z,99.99
2023-03-10T01:57:23.170Z,99.99
2023-03-10T01:58:23.133Z,99.99
2023-03-10T01:59:23.113Z,99.99
2023-03-10T02:00:23.109Z,99.99
2023-03-10T02:01:23.104Z,99.99
2023-03-10T02:02:23.278Z,99.99
2023-03-10T02:03:23.092Z,99.99
2023-03-10T02:04:23.112Z,99.99
2023-03-10T02:05:23.471Z,99.99
2023-03-10T02:06:23.473Z,99.99
2023-03-10T02:07:23.066Z,99.99
2023-03-10T02:08:23.072Z,99.99
2023-03-10T02:09:23.043Z,99.99
2023-03-10T02:10:23.042Z,99.99
2023-03-10T02:11:23.032Z,99.99
2023-03-10T02:12:23.023Z,99.99
2023-03-10T02:13:23.106Z,99.99
2023-03-10T02:14:23.002Z,99.99
2023-03-10T02:15:23.321Z,99.99
2023-03-10T02:16:23.132Z,99.99
2023-03-10T02:17:23.117Z,99.99
2023-03-10T02:18:22.983Z,99.99
2023-03-10T02:19:22.986Z,99.99
2023-03-10T02:20:23.595Z,99.99
2023-03-10T02:21:22.961Z,99.99
2023-03-10T02:22:22.953Z,99.99
2023-03-10T02:23:22.952Z,99.99
2023-03-10T02:24:22.973Z,99.99
2023-03-10T02:25:22.937Z,99.99
2023-03-10T02:26:22.933Z,99.99
2023-03-10T02:27:22.994Z,99.99
2023-03-10T02:28:22.976Z,99.99
2023-03-10T02:29:23.042Z,99.99
2023-03-10T02:30:23.713Z,99.99
2023-03-10T02:31:22.974Z,99.99
2023-03-10T02:32:22.944Z,99.99
2023-03-10T02:33:22.891Z,99.99
2023-03-10T02:34:22.951Z,99.99
2023-03-10T02:35:22.866Z,99.99
2023-03-10T02:36:22.909Z,99.99
2023-03-10T02:37:22.864Z,99.99
2023-03-10T02:38:22.852Z,99.99
2023-03-10T02:39:23.086Z,99.99
2023-03-10T02:40:22.841Z,99.99
2023-03-10T02:41:23.098Z,99.99
2023-03-10T02:42:22.832Z,99.99
2023-03-10T02:43:22.809Z,99.99
2023-03-10T02:44:22.830Z,99.99
2023-03-10T02:45:22.890Z,99.99
2023-03-10T02:46:22.808Z,99.99
2023-03-10T02:47:22.802Z,99.99
2023-03-10T02:48:22.793Z,99.99
2023-03-10T02:49:22.778Z,99.99
2023-03-10T02:50:22.769Z,99.99
2023-03-10T02:51:22.757Z,99.99
2023-03-10T02:52:22.758Z,99.99
2023-03-10T02:53:22.734Z,99.99
2023-03-10T02:54:22.878Z,99.99
2023-03-10T02:55:23.189Z,99.99
2023-03-10T02:56:23.197Z,99.99
2023-03-10T02:57:22.723Z,99.99
2023-03-10T02:58:22.759Z,99.99
2023-03-10T02:59:23.417Z,99.99
2023-03-10T03:00:22.699Z,99.99
2023-03-10T03:01:22.737Z,99.99
2023-03-10T03:02:22.687Z,99.99
2023-03-10T03:03:22.678Z,99.99
2023-03-10T03:04:23.053Z,99.99
2023-03-10T03:05:22.672Z,99.99
2023-03-10T03:06:22.653Z,99.99
2023-03-10T03:07:22.656Z,99.99
2023-03-10T03:08:22.641Z,99.99
2023-03-10T03:09:22.790Z,99.99
2023-03-10T03:10:22.622Z,99.99
2023-03-10T03:11:23.225Z,99.99
2023-03-10T03:12:22.752Z,99.99
2023-03-10T03:13:22.620Z,99.99
2023-03-10T03:14:23.243Z,99.99
2023-03-10T03:15:22.590Z,99.99
2023-03-10T03:16:22.623Z,99.99
2023-03-10T03:17:22.581Z,99.99
2023-03-10T03:18:22.573Z,99.99
2023-03-10T03:19:22.593Z,99.99
2023-03-10T03:20:23.621Z,99.99
2023-03-10T03:21:24.348Z,99.99
2023-03-10T03:22:22.550Z,99.99
2023-03-10T03:23:22.551Z,99.99
2023-03-10T03:24:22.619Z,99.99
2023-03-10T03:25:22.541Z,99.99
2023-03-10T03:26:22.518Z,99.99
2023-03-10T03:27:22.798Z,99.99
2023-03-10T03:28:22.504Z,99.99
2023-03-10T03:29:22.826Z,99.99
2023-03-10T03:30:22.492Z,99.99
2023-03-10T03:31:22.528Z,99.99
2023-03-10T03:32:22.506Z,99.99
2023-03-10T03:33:22.469Z,99.99
2023-03-10T03:34:22.455Z,99.99
2023-03-10T03:35:22.472Z,99.99
2023-03-10T03:36:22.456Z,99.99
2023-03-10T03:37:22.455Z,99.99
2023-03-10T03:38:22.435Z,99.99
2023-03-10T03:39:22.453Z,99.99
2023-03-10T03:40:22.453Z,99.99
2023-03-10T03:41:22.419Z,99.99
2023-03-10T03:42:22.402Z,99.99
2023-03-10T03:43:22.403Z,99.99
2023-03-10T03:44:22.394Z,99.99
2023-03-10T03:45:22.450Z,99.99
2023-03-10T03:46:22.416Z,99.99
2023-03-10T03:47:22.392Z,99.99
2023-03-10T03:48:22.562Z,99.99
2023-03-10T03:49:22.361Z,99.99
2023-03-10T03:50:22.354Z,99.99
2023-03-10T03:51:22.362Z,99.99
2023-03-10T03:52:22.332Z,99.99
2023-03-10T03:53:22.334Z,99.99
2023-03-10T03:54:22.318Z,99.99
2023-03-10T03:55:22.401Z,99.99
2023-03-10T03:56:22.315Z,99.99
2023-03-10T03:57:22.311Z,99.99
2023-03-10T03:58:22.300Z,99.99
2023-03-10T03:59:22.323Z,99.99
2023-03-10T04:00:22.615Z,99.99
2023-03-10T04:01:22.296Z,99.99
2023-03-10T04:02:22.316Z,99.99
2023-03-10T04:03:22.284Z,99.99
2023-03-10T04:04:22.252Z,99.99
2023-03-10T04:05:22.288Z,99.99
2023-03-10T04:06:22.249Z,99.99
2023-03-10T04:07:22.269Z,99.99
2023-03-10T04:08:22.226Z,99.99
2023-03-10T04:09:22.219Z,99.99
2023-03-10T04:10:22.236Z,99.99
2023-03-10T04:11:22.208Z,99.99
2023-03-10T04:12:22.184Z,99.99
2023-03-10T04:13:22.196Z,99.99
2023-03-10T04:14:22.194Z,99.99
2023-03-10T04:15:22.200Z,99.99
2023-03-10T04:16:22.169Z,99.99
2023-03-10T04:17:22.191Z,99.99
2023-03-10T04:18:22.157Z,99.99
2023-03-10T04:19:22.158Z,99.99
2023-03-10T04:20:22.169Z,99.99
2023-03-10T04:21:22.144Z,99.99
2023-03-10T04:22:22.148Z,99.99
2023-03-10T04:23:22.139Z,99.99
2023-03-10T04:24:22.137Z,99.99
2023-03-10T04:25:22.156Z,99.99
2023-03-10T04:26:22.148Z,99.99
2023-03-10T04:27:22.156Z,99.99
2023-03-10T04:28:22.132Z,99.99
2023-03-10T04:29:22.109Z,99.99
2023-03-10T04:30:22.105Z,99.99
2023-03-10T04:31:22.141Z,99.99
2023-03-10T04:32:22.123Z,99.99
2023-03-10T04:33:22.097Z,99.99
2023-03-10T04:34:22.066Z,99.99
2023-03-10T04:35:22.093Z,99.99
2023-03-10T04:36:22.057Z,99.99
2023-03-10T04:37:22.052Z,99.99
2023-03-10T04:38:22.036Z,99.99
2023-03-10T04:39:22.033Z,99.99
2023-03-10T04:40:22.036Z,99.99
2023-03-10T04:41:22.020Z,99.99
2023-03-10T04:42:22.004Z,99.99
2023-03-10T04:43:22.001Z,99.99
2023-03-10T04:44:30.957Z,99.99
2023-03-10T04:45:22.006Z,99.99
2023-03-10T04:46:22.063Z,99.99
2023-03-10T04:47:21.976Z,99.99
2023-03-10T04:48:22.425Z,99.99
2023-03-10T04:49:21.966Z,99.99
2023-03-10T04:50:21.959Z,99.99
2023-03-10T04:51:21.935Z,99.99
2023-03-10T04:52:21.932Z,99.99
2023-03-10T04:53:21.947Z,99.99
2023-03-10T04:54:21.921Z,99.99
2023-03-10T04:55:21.925Z,99.99
2023-03-10T04:56:21.915Z,99.99
2023-03-10T04:57:21.908Z,99.99
2023-03-10T04:58:21.894Z,99.99
2023-03-10T04:59:21.889Z,99.99
2023-03-10T05:00:22.074Z,99.99
2023-03-10T05:01:22.305Z,99.99
2023-03-10T05:02:22.126Z,99.99
2023-03-10T05:03:22.441Z,99.99
2023-03-10T05:04:21.948Z,99.99
2023-03-10T05:05:22.274Z,99.99
2023-03-10T05:06:22.123Z,99.99
2023-03-10T05:07:22.362Z,99.99
2023-03-10T05:08:22.178Z,99.99
2023-03-10T05:09:22.178Z,99.99
2023-03-10T05:10:21.844Z,99.99
2023-03-10T05:11:21.848Z,99.99
2023-03-10T05:12:21.827Z,99.99
2023-03-10T05:13:22.725Z,99.99
2023-03-10T05:14:21.954Z,99.99
2023-03-10T05:15:21.866Z,99.99
2023-03-10T05:16:21.953Z,99.99
2023-03-10T05:17:21.888Z,99.99
2023-03-10T05:18:21.885Z,99.99
2023-03-10T05:19:21.915Z,99.99
2023-03-10T05:20:22.095Z,99.99
2023-03-10T05:21:21.742Z,99.99
2023-03-10T05:22:21.733Z,99.99
2023-03-10T05:23:21.933Z,99.99
2023-03-10T05:24:21.930Z,99.99
2023-03-10T05:25:21.936Z,99.99
2023-03-10T05:26:21.973Z,99.99
2023-03-10T05:27:22.212Z,99.99
2023-03-10T05:28:21.937Z,99.99
2023-03-10T05:29:21.757Z,99.99
2023-03-10T05:30:21.943Z,99.99
2023-03-10T05:31:22.028Z,99.99
2023-03-10T05:32:22.320Z,99.99
2023-03-10T05:33:21.998Z,99.99
2023-03-10T05:34:21.785Z,99.99
2023-03-10T05:35:22.410Z,99.99
2023-03-10T05:36:22.440Z,99.99
2023-03-10T05:37:22.203Z,99.99
2023-03-10T05:38:21.764Z,99.99
2023-03-10T05:39:22.560Z,99.99
2023-03-10T05:40:22.475Z,99.99
2023-03-10T05:41:22.026Z,99.99
2023-03-10T05:42:22.230Z,99.99
2023-03-10T05:43:22.038Z,99.99
2023-03-10T05:44:22.089Z,99.99
2023-03-10T05:45:21.653Z,99.99
2023-03-10T05:46:21.709Z,99.99
2023-03-10T05:47:21.667Z,99.99
2023-03-10T05:48:21.561Z,99.99
2023-03-10T05:49:21.579Z,99.99
2023-03-10T05:50:21.561Z,99.99
2023-03-10T05:51:21.570Z,99.99
2023-03-10T05:52:21.529Z,99.99
2023-03-10T05:53:21.539Z,99.99
2023-03-10T05:54:21.519Z,99.99
2023-03-10T05:55:21.708Z,99.99
2023-03-10T05:56:21.508Z,99.99
2023-03-10T05:57:21.522Z,99.99
2023-03-10T05:58:21.522Z,99.99
2023-03-10T05:59:21.487Z,99.99
2023-03-10T06:00:21.541Z,99.99
2023-03-10T06:01:21.544Z,99.99
2023-03-10T06:02:21.547Z,99.99
2023-03-10T06:03:21.729Z,99.99
2023-03-10T06:04:21.644Z,99.99
2023-03-10T06:05:21.569Z,99.99
2023-03-10T06:06:21.574Z,99.99
2023-03-10T06:07:21.457Z,99.99
2023-03-10T06:08:21.588Z,99.99
2023-03-10T06:09:21.594Z,99.99
2023-03-10T06:10:21.629Z,99.99
2023-03-10T06:11:21.410Z,99.99
2023-03-10T06:12:21.607Z,99.99
2023-03-10T06:13:21.404Z,99.99
2023-03-10T06:14:21.451Z,99.99
2023-03-10T06:15:21.436Z,99.99
2023-03-10T06:16:21.403Z,99.99
2023-03-10T06:17:21.512Z,99.99
2023-03-10T06:18:21.358Z,99.99
2023-03-10T06:19:21.670Z,99.99
2023-03-10T06:20:21.455Z,99.99
2023-03-10T06:21:21.466Z,99.99
2023-03-10T06:22:21.438Z,99.99
2023-03-10T06:23:21.545Z,99.99
2023-03-10T06:24:21.936Z,99.99
2023-03-10T06:25:21.306Z,99.99
2023-03-10T06:26:21.296Z,99.99
2023-03-10T06:27:21.303Z,99.99
2023-03-10T06:28:21.303Z,99.99
2023-03-10T06:29:21.317Z,99.99
2023-03-10T06:30:21.275Z,99.99
2023-03-10T06:31:21.472Z,99.99
2023-03-10T06:32:21.435Z,99.99
2023-03-10T06:33:21.544Z,99.99
2023-03-10T06:34:21.555Z,99.99
2023-03-10T06:35:21.612Z,99.99
2023-03-10T06:36:21.646Z,99.99
2023-03-10T06:37:21.410Z,99.99
2023-03-10T06:38:21.774Z,99.99
2023-03-10T06:39:21.380Z,99.99
2023-03-10T06:40:21.519Z,99.99
2023-03-10T06:41:21.387Z,99.99
2023-03-10T06:42:21.519Z,99.99
2023-03-10T06:43:21.208Z,99.99
2023-03-10T06:44:21.173Z,99.99
2023-03-10T06:45:21.643Z,99.99
2023-03-10T06:46:21.374Z,99.99
2023-03-10T06:47:21.223Z,99.99
2023-03-10T06:48:21.281Z,99.99
2023-03-10T06:49:21.156Z,99.99
2023-03-10T06:50:21.251Z,99.99
2023-03-10T06:51:21.135Z,99.99
2023-03-10T06:52:21.257Z,99.99
2023-03-10T06:53:21.684Z,99.99
2023-03-10T06:54:21.339Z,99.99
2023-03-10T06:55:21.894Z,99.99
2023-03-10T06:56:21.896Z,99.99
2023-03-10T06:57:22.117Z,99.99
2023-03-10T06:58:21.163Z,99.99
2023-03-10T06:59:21.507Z,99.99
2023-03-10T07:00:21.962Z,99.99
2023-03-10T07:01:22.067Z,99.99
2023-03-10T07:02:21.797Z,99.99
2023-03-10T07:03:21.109Z,99.99
2023-03-10T07:04:21.068Z,99.99
2023-03-10T07:05:21.040Z,99.99
2023-03-10T07:06:21.051Z,99.99
2023-03-10T07:07:21.064Z,99.99
2023-03-10T07:08:21.020Z,99.99
2023-03-10T07:09:21.170Z,99.99
2023-03-10T07:10:21.001Z,99.99
2023-03-10T07:11:21.246Z,99.99
2023-03-10T07:12:20.996Z,99.99
2023-03-10T07:13:21.408Z,99.99
2023-03-10T07:14:21.446Z,99.99
2023-03-10T07:15:21.265Z,99.99
2023-03-10T07:16:21.458Z,99.99
2023-03-10T07:17:21.075Z,99.99
2023-03-10T07:18:21.645Z,99.99
2023-03-10T07:19:21.086Z,99.99
2023-03-10T07:20:21.436Z,99.99
2023-03-10T07:21:21.108Z,99.99
2023-03-10T07:22:21.871Z,99.99
2023-03-10T07:23:20.947Z,99.99
2023-03-10T07:24:20.917Z,99.99
2023-03-10T07:25:20.927Z,99.99
2023-03-10T07:26:21.146Z,99.99
2023-03-10T07:27:20.901Z,99.99
2023-03-10T07:28:21.761Z,99.99
2023-03-10T07:29:21.492Z,99.99
2023-03-10T07:30:21.573Z,99.99
2023-03-10T07:31:21.868Z,99.99
2023-03-10T07:32:21.346Z,99.99
2023-03-10T07:33:21.135Z,99.99
2023-03-10T07:34:21.520Z,99.99
2023-03-10T07:35:21.332Z,99.99
2023-03-10T07:36:20.876Z,99.99
2023-03-10T07:37:20.832Z,99.99
2023-03-10T07:38:21.636Z,99.99
2023-03-10T07:39:21.361Z,99.99
2023-03-10T07:40:20.820Z,99.99
2023-03-10T07:41:20.793Z,99.99
2023-03-10T07:42:20.780Z,99.99
2023-03-10T07:43:20.852Z,99.99
2023-03-10T07:44:20.851Z,99.99
2023-03-10T07:45:20.980Z,99.99
2023-03-10T07:46:21.050Z,99.99
2023-03-10T07:47:20.848Z,99.99
2023-03-10T07:48:21.008Z,99.99
2023-03-10T07:49:22.302Z,99.87
2023-03-10T07:50:20.728Z,99.99
2023-03-10T07:51:21.031Z,99.98
2023-03-10T07:52:20.820Z,99.99
2023-03-10T07:53:21.049Z,99.66
2023-03-10T07:54:20.921Z,98.95
2023-03-10T07:55:20.677Z,98.54
2023-03-10T07:56:20.726Z,98.54
2023-03-10T07:57:20.785Z,97.62
2023-03-10T07:58:20.751Z,97.92
2023-03-10T07:59:20.890Z,97.57
2023-03-10T08:00:20.889Z,97.98
2023-03-10T08:01:20.640Z,97.67
2023-03-10T08:02:21.009Z,97.92
2023-03-10T08:03:21.141Z,97.98
2023-03-10T08:04:20.837Z,97.88
2023-03-10T08:05:20.654Z,97.47
2023-03-10T08:06:20.609Z,97.47
2023-03-10T08:07:20.605Z,97.06
2023-03-10T08:08:20.619Z,97.27
2023-03-10T08:09:20.606Z,97.57
2023-03-10T08:10:20.662Z,97.67
2023-03-10T08:11:20.564Z,97.57
2023-03-10T08:12:20.557Z,98.08
2023-03-10T08:13:20.667Z,97.98
2023-03-10T08:14:21.114Z,97.37
2023-03-10T08:15:20.565Z,97.37
2023-03-10T08:16:20.640Z,97.67
2023-03-10T08:17:20.526Z,96.96
2023-03-10T08:18:20.590Z,96.96
2023-03-10T08:19:20.513Z,96.55
2023-03-10T08:20:20.513Z,96.81
2023-03-10T08:21:20.497Z,96.71
2023-03-10T08:22:22.559Z,97.42
2023-03-10T08:23:20.622Z,95.79
2023-03-10T08:24:20.564Z,96.10
2023-03-10T08:25:20.476Z,96.51
2023-03-10T08:26:20.466Z,96.05
2023-03-10T08:27:20.667Z,95.54
2023-03-10T08:28:20.766Z,95.54
2023-03-10T08:29:20.461Z,95.03
2023-03-10T08:30:20.781Z,94.58
2023-03-10T08:31:20.617Z,94.68
2023-03-10T08:32:20.817Z,94.48
2023-03-10T08:33:20.417Z,95.19
2023-03-10T08:34:20.427Z,93.86
2023-03-10T08:35:20.404Z,94.12
2023-03-10T08:36:20.472Z,93.71
2023-03-10T08:37:20.850Z,94.02
2023-03-10T08:38:20.416Z,93.92
2023-03-10T08:39:20.413Z,93.62
2023-03-10T08:40:20.370Z,94.02
2023-03-10T08:41:20.388Z,92.90
2023-03-10T08:42:20.363Z,93.51
2023-03-10T08:43:20.346Z,93.62
2023-03-10T08:44:20.352Z,93.41
2023-03-10T08:45:20.347Z,93.62
2023-03-10T08:46:20.423Z,93.62
2023-03-10T08:47:20.384Z,94.02
2023-03-10T08:48:20.322Z,94.12
2023-03-10T08:49:20.318Z,93.92
2023-03-10T08:50:20.492Z,93.67
2023-03-10T08:51:20.519Z,92.96
2023-03-10T08:52:20.308Z,92.96
2023-03-10T08:53:20.519Z,92.24
2023-03-10T08:54:20.530Z,91.94
2023-03-10T08:55:20.546Z,91.83
2023-03-10T08:56:20.562Z,92.24
2023-03-10T08:57:20.308Z,92.81
2023-03-10T08:58:20.253Z,91.08
2023-03-10T08:59:20.259Z,91.55
2023-03-10T09:00:20.351Z,91.24
2023-03-10T09:01:20.349Z,90.69
2023-03-10T09:02:20.309Z,90.89
2023-03-10T09:03:20.273Z,90.99
2023-03-10T09:04:20.495Z,90.59
2023-03-10T09:05:21.767Z,90.69
2023-03-10T09:06:20.218Z,90.94
2023-03-10T09:07:20.415Z,91.44
2023-03-10T09:08:21.628Z,90.73
2023-03-10T09:09:20.328Z,89.25
2023-03-10T09:10:20.753Z,90.77
2023-03-10T09:11:20.508Z,90.57
2023-03-10T09:12:20.794Z,90.57
2023-03-10T09:13:20.644Z,90.10
2023-03-10T09:14:20.787Z,90.20
2023-03-10T09:15:20.136Z,90.31
2023-03-10T09:16:20.561Z,91.49
2023-03-10T09:17:20.207Z,90.88
2023-03-10T09:18:20.845Z,91.18
2023-03-10T09:19:21.574Z,90.63
2023-03-10T09:20:20.097Z,89.57
2023-03-10T09:21:20.884Z,88.85
2023-03-10T09:22:20.894Z,87.59
2023-03-10T09:23:20.074Z,89.01
2023-03-10T09:24:20.595Z,87.49
2023-03-10T09:25:20.926Z,88.71
2023-03-10T09:26:20.088Z,88.10
2023-03-10T09:27:20.879Z,87.38
2023-03-10T09:28:20.035Z,88.51
2023-03-10T09:29:23.053Z,88.20
2023-03-10T09:30:20.869Z,87.90
2023-03-10T09:31:21.024Z,88.31
2023-03-10T09:32:20.151Z,88.71
2023-03-10T09:33:20.378Z,87.90
2023-03-10T09:34:20.008Z,87.75
2023-03-10T09:35:20.064Z,87.85
2023-03-10T09:36:20.487Z,87.75
2023-03-10T09:37:20.093Z,87.75
2023-03-10T09:38:19.985Z,86.94
2023-03-10T09:39:20.096Z,87.04
2023-03-10T09:40:20.228Z,86.63
2023-03-10T09:41:20.227Z,87.35
2023-03-10T09:42:26.075Z,87.85
2023-03-10T09:43:19.935Z,85.82
2023-03-10T09:44:20.355Z,86.90
2023-03-10T09:45:20.244Z,85.61
2023-03-10T09:46:19.973Z,85.31
2023-03-10T09:47:20.357Z,86.16
2023-03-10T09:48:20.476Z,86.88
2023-03-10T09:49:20.370Z,86.22
2023-03-10T09:50:20.563Z,86.47
2023-03-10T09:51:19.952Z,86.77
2023-03-10T09:52:19.894Z,87.63
2023-03-10T09:53:20.705Z,88.08
2023-03-10T09:54:20.382Z,88.08
2023-03-10T09:55:20.522Z,88.08
2023-03-10T09:56:19.925Z,88.49
2023-03-10T09:57:20.001Z,88.69
2023-03-10T09:58:19.850Z,89.40
2023-03-10T09:59:20.542Z,89.51
2023-03-10T10:00:19.842Z,89.40
2023-03-10T10:01:20.710Z,88.73
2023-03-10T10:02:20.034Z,89.34
2023-03-10T10:03:20.153Z,89.14
2023-03-10T10:04:20.804Z,88.93
2023-03-10T10:05:20.172Z,89.55
2023-03-10T10:06:19.784Z,90.36
2023-03-10T10:07:19.939Z,90.06
2023-03-10T10:08:19.788Z,89.65
2023-03-10T10:09:19.793Z,90.71
2023-03-10T10:10:19.798Z,92.55
2023-03-10T10:11:19.806Z,92.86
2023-03-10T10:12:19.735Z,93.77
2023-03-10T10:13:19.818Z,93.92
2023-03-10T10:14:29.576Z,94.64
2023-03-10T10:15:19.724Z,94.58
2023-03-10T10:16:33.526Z,96.42
2023-03-10T10:17:20.205Z,97.28
2023-03-10T10:18:22.090Z,99.02
2023-03-10T10:19:19.870Z,99.78
2023-03-10T10:20:19.699Z,99.99
2023-03-10T10:21:20.445Z,99.99
2023-03-10T10:22:19.988Z,99.99
2023-03-10T10:23:19.884Z,99.99
2023-03-10T10:24:19.692Z,99.99
2023-03-10T10:25:19.705Z,99.99
2023-03-10T10:26:19.712Z,99.99
2023-03-10T10:27:21.801Z,99.99
2023-03-10T10:28:19.646Z,99.99
2023-03-10T10:29:19.922Z,99.99
2023-03-10T10:30:19.622Z,99.99
2023-03-10T10:31:19.677Z,99.93
2023-03-10T10:32:19.642Z,99.79
2023-03-10T10:33:19.619Z,98.15
2023-03-10T10:34:19.943Z,97.95
2023-03-10T10:35:19.622Z,98.05
2023-03-10T10:36:19.683Z,98.25
2023-03-10T10:37:19.562Z,96.88
2023-03-10T10:38:20.004Z,94.74
2023-03-10T10:39:19.642Z,93.71
2023-03-10T10:40:20.093Z,94.59
2023-03-10T10:41:20.126Z,94.59
2023-03-10T10:42:19.601Z,93.93
2023-03-10T10:43:20.089Z,94.14
2023-03-10T10:44:19.682Z,93.84
2023-03-10T10:45:19.821Z,93.93
2023-03-10T10:46:19.935Z,93.37
2023-03-10T10:47:20.079Z,94.70
2023-03-10T10:48:20.269Z,94.84
2023-03-10T10:49:19.551Z,95.96
2023-03-10T10:50:20.027Z,96.21
2023-03-10T10:51:20.283Z,97.54
2023-03-10T10:52:19.473Z,98.15
2023-03-10T10:53:19.476Z,99.22
2023-03-10T10:54:19.484Z,99.99
2023-03-10T10:55:19.483Z,99.98
2023-03-10T10:56:19.566Z,99.99
2023-03-10T10:57:19.785Z,99.99
2023-03-10T10:58:19.512Z,99.99
2023-03-10T10:59:19.544Z,99.99
2023-03-10T11:00:19.525Z,99.99
2023-03-10T11:01:19.788Z,99.99
2023-03-10T11:02:19.585Z,99.99
2023-03-10T11:03:19.816Z,99.99
2023-03-10T11:04:19.976Z,99.99
2023-03-10T11:05:19.412Z,99.99
2023-03-10T11:06:20.040Z,99.99
2023-03-10T11:07:20.077Z,99.99
2023-03-10T11:08:19.432Z,99.99
2023-03-10T11:09:19.525Z,99.99
2023-03-10T11:10:19.822Z,99.99
2023-03-10T11:11:20.140Z,99.99
2023-03-10T11:12:19.312Z,99.99
2023-03-10T11:13:19.616Z,99.99
2023-03-10T11:14:19.301Z,99.99
2023-03-10T11:15:19.293Z,99.99
2023-03-10T11:16:19.317Z,99.32
2023-03-10T11:17:19.443Z,98.86
2023-03-10T11:18:20.261Z,98.56
2023-03-10T11:19:19.261Z,98.56
2023-03-10T11:20:19.310Z,97.95
2023-03-10T11:21:19.713Z,97.80
2023-03-10T11:22:19.683Z,97.60
2023-03-10T11:23:19.696Z,97.55
2023-03-10T11:24:19.278Z,97.24
2023-03-10T11:25:19.901Z,97.45
2023-03-10T11:26:19.917Z,95.20
2023-03-10T11:27:19.828Z,95.16
2023-03-10T11:28:19.924Z,94.91
2023-03-10T11:29:19.425Z,95.12
2023-03-10T11:30:19.226Z,95.21
2023-03-10T11:31:19.254Z,93.33
2023-03-10T11:32:19.316Z,92.42
2023-03-10T11:33:19.340Z,92.22
2023-03-10T11:34:19.352Z,92.27
2023-03-10T11:35:19.361Z,90.75
2023-03-10T11:36:19.300Z,88.83
2023-03-10T11:37:19.578Z,88.02
2023-03-10T11:38:19.603Z,87.79
2023-03-10T11:39:19.228Z,86.07
2023-03-10T11:40:19.800Z,85.98
2023-03-10T11:41:19.599Z,83.85
2023-03-10T11:42:19.810Z,81.95
2023-03-10T11:43:19.128Z,80.08
2023-03-10T11:44:19.419Z,80.19
2023-03-10T11:45:19.224Z,80.41
2023-03-10T11:46:19.708Z,78.89
2023-03-10T11:47:20.093Z,79.31
2023-03-10T11:48:19.079Z,80.91
2023-03-10T11:49:19.450Z,82.67
2023-03-10T11:50:19.226Z,82.33
2023-03-10T11:51:19.868Z,81.99
2023-03-10T11:52:19.919Z,82.52
2023-03-10T11:53:19.141Z,80.55
2023-03-10T11:54:19.017Z,79.91
2023-03-10T11:55:19.278Z,78.25
2023-03-10T11:56:19.910Z,79.67
2023-03-10T11:57:19.977Z,79.57
2023-03-10T11:58:19.508Z,77.78
2023-03-10T11:59:19.122Z,78.56
2023-03-10T12:00:20.046Z,80.15
2023-03-10T12:01:19.953Z,80.55
2023-03-10T12:02:19.327Z,77.75
2023-03-10T12:03:19.361Z,79.60
2023-03-10T12:04:18.960Z,77.01
2023-03-10T12:05:19.007Z,78.46
2023-03-10T12:06:18.955Z,79.54
2023-03-10T12:07:19.175Z,77.08
2023-03-10T12:08:18.969Z,76.81
2023-03-10T12:09:18.969Z,78.84
2023-03-10T12:10:18.909Z,79.75
2023-03-10T12:11:19.014Z,77.01
2023-03-10T12:12:19.202Z,76.34
2023-03-10T12:13:19.206Z,77.56
2023-03-10T12:14:19.205Z,75.83
2023-03-10T12:15:19.220Z,76.28
2023-03-10T12:16:18.959Z,76.98
2023-03-10T12:17:19.024Z,76.41
2023-03-10T12:18:18.857Z,75.80
2023-03-10T12:19:18.837Z,77.33
2023-03-10T12:20:18.895Z,76.61
2023-03-10T12:21:19.467Z,76.92
2023-03-10T12:22:18.854Z,78.00
2023-03-10T12:23:18.854Z,75.67
2023-03-10T12:24:18.803Z,76.88
2023-03-10T12:25:18.913Z,76.54
2023-03-10T12:26:18.783Z,77.52
2023-03-10T12:27:19.843Z,74.24
2023-03-10T12:28:18.763Z,74.41
2023-03-10T12:29:18.783Z,72.38
2023-03-10T12:30:18.797Z,71.77
2023-03-10T12:31:18.797Z,73.25
2023-03-10T12:32:18.976Z,72.55
2023-03-10T12:33:18.931Z,73.73
2023-03-10T12:34:18.721Z,73.93
2023-03-10T12:35:18.949Z,72.38
2023-03-10T12:36:19.020Z,74.20
2023-03-10T12:37:18.962Z,72.65
2023-03-10T12:38:18.959Z,71.06
2023-03-10T12:39:18.986Z,69.04
2023-03-10T12:40:18.941Z,72.28
2023-03-10T12:41:18.990Z,71.30
2023-03-10T12:42:19.014Z,67.86
2023-03-10T12:43:19.007Z,66.71
2023-03-10T12:44:18.998Z,68.60
2023-03-10T12:45:18.669Z,69.34
2023-03-10T12:46:18.681Z,67.88
2023-03-10T12:47:18.638Z,69.00
2023-03-10T12:48:18.650Z,69.74
2023-03-10T12:49:18.653Z,69.17
2023-03-10T12:50:18.609Z,71.20
2023-03-10T12:51:18.664Z,72.41
2023-03-10T12:52:18.588Z,70.89